sensor_id;sensor_type;location;lat;lon;timestamp;temperature;humidity
16417;DHT22;8317;52.186;5.688;2023-04-09T00:01:19;9.40;99.90
16417;DHT22;8317;52.186;5.688;2023-04-09T00:03:46;9.50;99.90
16417;DHT22;8317;52.186;5.688;2023-04-09T00:06:13;9.50;99.90
16417;DHT22;8317;52.186;5.688;2023-04-09T00:08:41;9.50;99.90
16417;DHT22;8317;52.186;5.688;2023-04-09T00:11:08;9.50;99.90
16417;DHT22;8317;52.186;5.688;2023-04-09T00:13:35;9.50;99.90
16417;DHT22;8317;52.186;5.688;2023-04-09T00:16:02;9.50;99.90
16417;DHT22;8317;52.186;5.688;2023-04-09T00:18:29;9.40;99.90
16417;DHT22;8317;52.186;5.688;2023-04-09T00:20:56;9.40;99.90
16417;DHT22;8317;52.186;5.688;2023-04-09T00:23:23;9.40;99.90
16417;DHT22;8317;52.186;5.688;2023-04-09T00:25:51;9.50;99.90
16417;DHT22;8317;52.186;5.688;2023-04-09T00:28:18;9.50;99.90
16417;DHT22;8317;52.186;5.688;2023-04-09T00:30:45;9.40;99.90
16417;DHT22;8317;52.186;5.688;2023-04-09T00:33:12;9.40;99.90
16417;DHT22;8317;52.186;5.688;2023-04-09T00:35:38;9.40;99.90
16417;DHT22;8317;52.186;5.688;2023-04-09T00:38:05;9.40;99.90
16417;DHT22;8317;52.186;5.688;2023-04-09T00:40:32;9.40;99.90
16417;DHT22;8317;52.186;5.688;2023-04-09T00:43:01;9.40;99.90
16417;DHT22;8317;52.186;5.688;2023-04-09T00:45:27;9.40;99.90
16417;DHT22;8317;52.186;5.688;2023-04-09T00:47:55;9.40;99.90
16417;DHT22;8317;52.186;5.688;2023-04-09T00:50:21;9.40;99.90
16417;DHT22;8317;52.186;5.688;2023-04-09T00:52:48;9.40;99.90
16417;DHT22;8317;52.186;5.688;2023-04-09T00:55:16;9.40;99.90
16417;DHT22;8317;52.186;5.688;2023-04-09T00:57:43;9.40;99.90
16417;DHT22;8317;52.186;5.688;2023-04-09T01:00:13;9.40;99.90
16417;DHT22;8317;52.186;5.688;2023-04-09T01:02:40;9.30;99.90
16417;DHT22;8317;52.186;5.688;2023-04-09T01:05:08;9.30;99.90
16417;DHT22;8317;52.186;5.688;2023-04-09T01:07:49;9.30;99.90
16417;DHT22;8317;52.186;5.688;2023-04-09T01:10:23;9.30;99.90
16417;DHT22;8317;52.186;5.688;2023-04-09T01:13:00;9.40;99.90
16417;DHT22;8317;52.186;5.688;2023-04-09T01:15:33;9.40;99.90
16417;DHT22;8317;52.186;5.688;2023-04-09T01:18:05;9.50;99.90
16417;DHT22;8317;52.186;5.688;2023-04-09T01:20:36;9.50;99.90
16417;DHT22;8317;52.186;5.688;2023-04-09T01:23:13;9.50;99.90
16417;DHT22;8317;52.186;5.688;2023-04-09T01:25:58;9.50;99.90
16417;DHT22;8317;52.186;5.688;2023-04-09T01:28:31;9.40;99.90
16417;DHT22;8317;52.186;5.688;2023-04-09T01:31:01;9.40;99.90
16417;DHT22;8317;52.186;5.688;2023-04-09T01:33:30;9.40;99.90
16417;DHT22;8317;52.186;5.688;2023-04-09T01:35:59;9.40;99.90
16417;DHT22;8317;52.186;5.688;2023-04-09T01:38:27;9.40;99.90
16417;DHT22;8317;52.186;5.688;2023-04-09T01:40:54;9.50;99.90
16417;DHT22;8317;52.186;5.688;2023-04-09T01:43:23;9.40;99.90
16417;DHT22;8317;52.186;5.688;2023-04-09T01:45:53;9.40;99.90
16417;DHT22;8317;52.186;5.688;2023-04-09T01:48:20;9.40;99.90
16417;DHT22;8317;52.186;5.688;2023-04-09T01:50:48;9.40;99.90
16417;DHT22;8317;52.186;5.688;2023-04-09T01:53:15;9.50;99.90
16417;DHT22;8317;52.186;5.688;2023-04-09T01:55:42;9.40;99.90
16417;DHT22;8317;52.186;5.688;2023-04-09T01:58:10;9.40;99.90
16417;DHT22;8317;52.186;5.688;2023-04-09T02:00:39;9.50;99.90
16417;DHT22;8317;52.186;5.688;2023-04-09T02:03:17;9.50;99.90
16417;DHT22;8317;52.186;5.688;2023-04-09T02:05:48;9.40;99.90
16417;DHT22;8317;52.186;5.688;2023-04-09T02:08:20;9.40;99.90
16417;DHT22;8317;52.186;5.688;2023-04-09T02:10:52;9.40;99.90
16417;DHT22;8317;52.186;5.688;2023-04-09T02:13:21;9.40;99.90
16417;DHT22;8317;52.186;5.688;2023-04-09T02:15:49;9.30;99.90
16417;DHT22;8317;52.186;5.688;2023-04-09T02:18:22;9.40;99.90
16417;DHT22;8317;52.186;5.688;2023-04-09T02:20:50;9.40;99.90
16417;DHT22;8317;52.186;5.688;2023-04-09T02:23:17;9.40;99.90
16417;DHT22;8317;52.186;5.688;2023-04-09T02:25:44;9.50;99.90
16417;DHT22;8317;52.186;5.688;2023-04-09T02:28:11;9.40;99.90
16417;DHT22;8317;52.186;5.688;2023-04-09T02:30:38;9.40;99.90
16417;DHT22;8317;52.186;5.688;2023-04-09T02:33:05;9.30;99.90
16417;DHT22;8317;52.186;5.688;2023-04-09T02:35:33;9.40;99.90
16417;DHT22;8317;52.186;5.688;2023-04-09T02:38:00;9.30;99.90
16417;DHT22;8317;52.186;5.688;2023-04-09T02:40:28;9.30;99.90
16417;DHT22;8317;52.186;5.688;2023-04-09T02:42:54;9.40;99.90
16417;DHT22;8317;52.186;5.688;2023-04-09T02:45:21;9.40;99.90
16417;DHT22;8317;52.186;5.688;2023-04-09T02:47:48;9.40;99.90
16417;DHT22;8317;52.186;5.688;2023-04-09T02:50:16;9.40;99.90
16417;DHT22;8317;52.186;5.688;2023-04-09T02:52:46;9.40;99.90
16417;DHT22;8317;52.186;5.688;2023-04-09T02:55:13;9.40;99.90
16417;DHT22;8317;52.186;5.688;2023-04-09T02:57:40;9.30;99.90
16417;DHT22;8317;52.186;5.688;2023-04-09T03:00:08;9.40;99.90
16417;DHT22;8317;52.186;5.688;2023-04-09T03:02:35;9.40;99.90
16417;DHT22;8317;52.186;5.688;2023-04-09T03:05:02;9.40;99.90
16417;DHT22;8317;52.186;5.688;2023-04-09T03:07:29;9.40;99.90
16417;DHT22;8317;52.186;5.688;2023-04-09T03:09:57;9.40;99.90
16417;DHT22;8317;52.186;5.688;2023-04-09T03:12:24;9.40;99.90
16417;DHT22;8317;52.186;5.688;2023-04-09T03:14:51;9.40;99.90
16417;DHT22;8317;52.186;5.688;2023-04-09T03:17:18;9.40;99.90
16417;DHT22;8317;52.186;5.688;2023-04-09T03:19:45;9.40;99.90
16417;DHT22;8317;52.186;5.688;2023-04-09T03:22:12;9.40;99.90
16417;DHT22;8317;52.186;5.688;2023-04-09T03:24:39;9.30;99.90
16417;DHT22;8317;52.186;5.688;2023-04-09T03:27:07;9.30;99.90
16417;DHT22;8317;52.186;5.688;2023-04-09T03:29:34;9.30;99.90
16417;DHT22;8317;52.186;5.688;2023-04-09T03:32:00;9.30;99.90
16417;DHT22;8317;52.186;5.688;2023-04-09T03:34:27;9.30;99.90
16417;DHT22;8317;52.186;5.688;2023-04-09T03:36:54;9.30;99.90
16417;DHT22;8317;52.186;5.688;2023-04-09T03:39:21;9.20;99.90
16417;DHT22;8317;52.186;5.688;2023-04-09T03:41:48;9.20;99.90
16417;DHT22;8317;52.186;5.688;2023-04-09T03:44:16;9.20;99.90
16417;DHT22;8317;52.186;5.688;2023-04-09T03:46:43;9.10;99.90
16417;DHT22;8317;52.186;5.688;2023-04-09T03:49:10;9.20;99.90
16417;DHT22;8317;52.186;5.688;2023-04-09T03:51:37;9.20;99.90
16417;DHT22;8317;52.186;5.688;2023-04-09T03:54:03;9.20;99.90
16417;DHT22;8317;52.186;5.688;2023-04-09T03:56:30;9.20;99.90
16417;DHT22;8317;52.186;5.688;2023-04-09T03:58:57;9.20;99.90
16417;DHT22;8317;52.186;5.688;2023-04-09T04:01:26;9.10;99.90
16417;DHT22;8317;52.186;5.688;2023-04-09T04:03:52;9.10;99.90
16417;DHT22;8317;52.186;5.688;2023-04-09T04:06:19;9.20;99.90
16417;DHT22;8317;52.186;5.688;2023-04-09T04:08:46;9.20;99.90
16417;DHT22;8317;52.186;5.688;2023-04-09T04:11:13;9.20;99.90
16417;DHT22;8317;52.186;5.688;2023-04-09T04:13:40;9.10;99.90
16417;DHT22;8317;52.186;5.688;2023-04-09T04:16:08;9.20;99.90
16417;DHT22;8317;52.186;5.688;2023-04-09T04:18:36;9.20;99.90
16417;DHT22;8317;52.186;5.688;2023-04-09T04:21:03;9.30;99.90
16417;DHT22;8317;52.186;5.688;2023-04-09T04:23:30;9.30;99.90
16417;DHT22;8317;52.186;5.688;2023-04-09T04:25:57;9.30;99.90
16417;DHT22;8317;52.186;5.688;2023-04-09T04:28:24;9.20;99.90
16417;DHT22;8317;52.186;5.688;2023-04-09T04:30:50;9.30;99.90
16417;DHT22;8317;52.186;5.688;2023-04-09T04:33:17;9.30;99.90
16417;DHT22;8317;52.186;5.688;2023-04-09T04:35:45;9.20;99.90
16417;DHT22;8317;52.186;5.688;2023-04-09T04:38:12;9.20;99.90
16417;DHT22;8317;52.186;5.688;2023-04-09T04:40:39;9.20;99.90
16417;DHT22;8317;52.186;5.688;2023-04-09T04:43:06;9.20;99.90
16417;DHT22;8317;52.186;5.688;2023-04-09T04:45:33;9.30;99.90
16417;DHT22;8317;52.186;5.688;2023-04-09T04:48:00;9.20;99.90
16417;DHT22;8317;52.186;5.688;2023-04-09T04:50:27;9.20;99.90
16417;DHT22;8317;52.186;5.688;2023-04-09T04:52:55;9.20;99.90
16417;DHT22;8317;52.186;5.688;2023-04-09T04:55:22;9.10;99.90
16417;DHT22;8317;52.186;5.688;2023-04-09T04:57:49;9.10;99.90
16417;DHT22;8317;52.186;5.688;2023-04-09T05:00:17;9.10;99.90
16417;DHT22;8317;52.186;5.688;2023-04-09T05:02:44;9.20;99.90
16417;DHT22;8317;52.186;5.688;2023-04-09T05:05:11;9.20;99.90
16417;DHT22;8317;52.186;5.688;2023-04-09T05:07:38;9.10;99.90
16417;DHT22;8317;52.186;5.688;2023-04-09T05:10:08;9.10;99.90
16417;DHT22;8317;52.186;5.688;2023-04-09T05:12:34;9.10;99.90
16417;DHT22;8317;52.186;5.688;2023-04-09T05:15:02;9.20;99.90
16417;DHT22;8317;52.186;5.688;2023-04-09T05:17:28;9.20;99.90
16417;DHT22;8317;52.186;5.688;2023-04-09T05:19:55;9.20;99.90
16417;DHT22;8317;52.186;5.688;2023-04-09T05:22:23;9.20;99.90
16417;DHT22;8317;52.186;5.688;2023-04-09T05:24:50;9.10;99.90
16417;DHT22;8317;52.186;5.688;2023-04-09T05:27:18;9.10;99.90
16417;DHT22;8317;52.186;5.688;2023-04-09T05:29:46;9.10;99.90
16417;DHT22;8317;52.186;5.688;2023-04-09T05:32:13;9.10;99.90
16417;DHT22;8317;52.186;5.688;2023-04-09T05:34:40;9.10;99.90
16417;DHT22;8317;52.186;5.688;2023-04-09T05:37:07;9.10;99.90
16417;DHT22;8317;52.186;5.688;2023-04-09T05:39:34;9.10;99.90
16417;DHT22;8317;52.186;5.688;2023-04-09T05:42:01;9.10;99.90
16417;DHT22;8317;52.186;5.688;2023-04-09T05:44:29;9.10;99.90
16417;DHT22;8317;52.186;5.688;2023-04-09T05:46:56;9.10;99.90
16417;DHT22;8317;52.186;5.688;2023-04-09T05:49:23;9.20;99.90
16417;DHT22;8317;52.186;5.688;2023-04-09T05:51:50;9.10;99.90
16417;DHT22;8317;52.186;5.688;2023-04-09T05:54:17;9.10;99.90
16417;DHT22;8317;52.186;5.688;2023-04-09T05:56:44;9.10;99.90
16417;DHT22;8317;52.186;5.688;2023-04-09T05:59:12;9.10;99.90
16417;DHT22;8317;52.186;5.688;2023-04-09T06:01:40;9.10;99.90
16417;DHT22;8317;52.186;5.688;2023-04-09T06:04:07;9.10;99.90
16417;DHT22;8317;52.186;5.688;2023-04-09T06:06:37;9.10;99.90
16417;DHT22;8317;52.186;5.688;2023-04-09T06:09:04;9.20;99.90
16417;DHT22;8317;52.186;5.688;2023-04-09T06:11:31;9.20;99.90
16417;DHT22;8317;52.186;5.688;2023-04-09T06:13:58;9.20;99.90
16417;DHT22;8317;52.186;5.688;2023-04-09T06:16:25;9.20;99.90
16417;DHT22;8317;52.186;5.688;2023-04-09T06:18:53;9.30;99.90
16417;DHT22;8317;52.186;5.688;2023-04-09T06:21:21;9.30;99.90
16417;DHT22;8317;52.186;5.688;2023-04-09T06:23:48;9.30;99.90
16417;DHT22;8317;52.186;5.688;2023-04-09T06:26:16;9.30;99.90
16417;DHT22;8317;52.186;5.688;2023-04-09T06:28:42;9.30;99.90
16417;DHT22;8317;52.186;5.688;2023-04-09T06:31:09;9.50;99.90
16417;DHT22;8317;52.186;5.688;2023-04-09T06:33:36;9.50;99.90
16417;DHT22;8317;52.186;5.688;2023-04-09T06:36:05;9.50;99.90
16417;DHT22;8317;52.186;5.688;2023-04-09T06:38:32;9.50;99.90
16417;DHT22;8317;52.186;5.688;2023-04-09T06:40:59;9.50;99.90
16417;DHT22;8317;52.186;5.688;2023-04-09T06:43:26;9.50;99.90
16417;DHT22;8317;52.186;5.688;2023-04-09T06:45:53;9.50;99.90
16417;DHT22;8317;52.186;5.688;2023-04-09T06:48:20;9.50;99.90
16417;DHT22;8317;52.186;5.688;2023-04-09T06:50:47;9.50;99.90
16417;DHT22;8317;52.186;5.688;2023-04-09T06:53:15;9.70;99.90
16417;DHT22;8317;52.186;5.688;2023-04-09T06:55:42;9.90;99.90
16417;DHT22;8317;52.186;5.688;2023-04-09T06:58:09;10.20;99.90
16417;DHT22;8317;52.186;5.688;2023-04-09T07:00:36;9.90;99.90
16417;DHT22;8317;52.186;5.688;2023-04-09T07:03:03;9.80;99.90
16417;DHT22;8317;52.186;5.688;2023-04-09T07:05:33;10.00;99.90
16417;DHT22;8317;52.186;5.688;2023-04-09T07:08:00;10.10;99.90
16417;DHT22;8317;52.186;5.688;2023-04-09T07:10:28;10.20;99.90
16417;DHT22;8317;52.186;5.688;2023-04-09T07:12:55;10.50;99.90
16417;DHT22;8317;52.186;5.688;2023-04-09T07:15:22;10.60;99.90
16417;DHT22;8317;52.186;5.688;2023-04-09T07:17:49;10.90;99.90
16417;DHT22;8317;52.186;5.688;2023-04-09T07:20:16;10.60;99.90
16417;DHT22;8317;52.186;5.688;2023-04-09T07:22:43;10.60;99.90
16417;DHT22;8317;52.186;5.688;2023-04-09T07:25:10;10.70;99.90
16417;DHT22;8317;52.186;5.688;2023-04-09T07:27:38;10.80;99.90
16417;DHT22;8317;52.186;5.688;2023-04-09T07:30:06;10.70;99.90
16417;DHT22;8317;52.186;5.688;2023-04-09T07:32:33;11.00;99.90
16417;DHT22;8317;52.186;5.688;2023-04-09T07:35:01;11.00;99.90
16417;DHT22;8317;52.186;5.688;2023-04-09T07:37:29;11.40;99.90
16417;DHT22;8317;52.186;5.688;2023-04-09T07:39:56;11.20;99.90
16417;DHT22;8317;52.186;5.688;2023-04-09T07:42:23;11.50;99.90
16417;DHT22;8317;52.186;5.688;2023-04-09T07:44:52;11.80;99.90
16417;DHT22;8317;52.186;5.688;2023-04-09T07:47:21;11.70;99.90
16417;DHT22;8317;52.186;5.688;2023-04-09T07:49:48;12.10;99.90
16417;DHT22;8317;52.186;5.688;2023-04-09T07:52:15;12.30;99.90
16417;DHT22;8317;52.186;5.688;2023-04-09T07:54:43;12.50;99.90
16417;DHT22;8317;52.186;5.688;2023-04-09T07:57:10;12.70;99.90
16417;DHT22;8317;52.186;5.688;2023-04-09T07:59:37;13.00;99.90
16417;DHT22;8317;52.186;5.688;2023-04-09T08:02:05;13.00;99.90
16417;DHT22;8317;52.186;5.688;2023-04-09T08:04:32;12.70;99.90
16417;DHT22;8317;52.186;5.688;2023-04-09T08:06:59;13.30;99.90
16417;DHT22;8317;52.186;5.688;2023-04-09T08:09:26;13.50;99.90
16417;DHT22;8317;52.186;5.688;2023-04-09T08:11:53;13.80;99.90
16417;DHT22;8317;52.186;5.688;2023-04-09T08:14:20;13.80;99.90
16417;DHT22;8317;52.186;5.688;2023-04-09T08:16:48;13.50;99.90
16417;DHT22;8317;52.186;5.688;2023-04-09T08:19:17;13.90;99.90
16417;DHT22;8317;52.186;5.688;2023-04-09T08:21:44;13.90;99.90
16417;DHT22;8317;52.186;5.688;2023-04-09T08:24:13;13.90;99.90
16417;DHT22;8317;52.186;5.688;2023-04-09T08:26:41;13.90;99.90
16417;DHT22;8317;52.186;5.688;2023-04-09T08:29:10;13.50;99.90
16417;DHT22;8317;52.186;5.688;2023-04-09T08:31:38;13.70;99.90
16417;DHT22;8317;52.186;5.688;2023-04-09T08:34:06;14.30;99.90
16417;DHT22;8317;52.186;5.688;2023-04-09T08:36:34;14.30;99.90
16417;DHT22;8317;52.186;5.688;2023-04-09T08:39:01;14.50;99.90
16417;DHT22;8317;52.186;5.688;2023-04-09T08:41:28;14.00;99.90
16417;DHT22;8317;52.186;5.688;2023-04-09T08:43:56;14.40;99.90
16417;DHT22;8317;52.186;5.688;2023-04-09T08:46:23;14.70;99.90
16417;DHT22;8317;52.186;5.688;2023-04-09T08:48:51;14.70;99.90
16417;DHT22;8317;52.186;5.688;2023-04-09T08:51:19;14.70;99.90
16417;DHT22;8317;52.186;5.688;2023-04-09T08:53:48;15.00;99.90
16417;DHT22;8317;52.186;5.688;2023-04-09T08:56:18;15.00;99.90
16417;DHT22;8317;52.186;5.688;2023-04-09T08:58:46;15.00;99.90
16417;DHT22;8317;52.186;5.688;2023-04-09T09:01:20;15.10;99.90
16417;DHT22;8317;52.186;5.688;2023-04-09T09:03:56;15.30;99.90
16417;DHT22;8317;52.186;5.688;2023-04-09T09:06:25;15.50;99.90
16417;DHT22;8317;52.186;5.688;2023-04-09T09:09:01;14.90;99.90
16417;DHT22;8317;52.186;5.688;2023-04-09T09:11:29;14.50;99.90
16417;DHT22;8317;52.186;5.688;2023-04-09T09:14:03;14.60;99.90
16417;DHT22;8317;52.186;5.688;2023-04-09T09:16:31;14.80;99.90
16417;DHT22;8317;52.186;5.688;2023-04-09T09:18:59;15.30;99.90
16417;DHT22;8317;52.186;5.688;2023-04-09T09:21:27;15.40;99.90
16417;DHT22;8317;52.186;5.688;2023-04-09T09:23:55;15.30;99.90
16417;DHT22;8317;52.186;5.688;2023-04-09T09:26:25;15.60;99.90
16417;DHT22;8317;52.186;5.688;2023-04-09T09:28:52;15.80;99.90
16417;DHT22;8317;52.186;5.688;2023-04-09T09:31:20;15.80;99.90
16417;DHT22;8317;52.186;5.688;2023-04-09T09:33:48;15.80;99.90
16417;DHT22;8317;52.186;5.688;2023-04-09T09:36:29;15.20;99.90
16417;DHT22;8317;52.186;5.688;2023-04-09T09:38:58;15.50;99.90
16417;DHT22;8317;52.186;5.688;2023-04-09T09:41:29;16.50;99.90
16417;DHT22;8317;52.186;5.688;2023-04-09T09:43:56;16.40;99.90
16417;DHT22;8317;52.186;5.688;2023-04-09T09:46:24;16.50;99.90
16417;DHT22;8317;52.186;5.688;2023-04-09T09:48:52;16.30;99.90
16417;DHT22;8317;52.186;5.688;2023-04-09T09:51:23;16.10;99.90
16417;DHT22;8317;52.186;5.688;2023-04-09T09:53:54;16.40;99.90
16417;DHT22;8317;52.186;5.688;2023-04-09T09:56:23;16.30;99.90
16417;DHT22;8317;52.186;5.688;2023-04-09T09:59:01;16.20;99.90
16417;DHT22;8317;52.186;5.688;2023-04-09T10:01:32;16.30;99.90
16417;DHT22;8317;52.186;5.688;2023-04-09T10:04:00;16.30;99.90
16417;DHT22;8317;52.186;5.688;2023-04-09T10:06:29;16.50;99.90
16417;DHT22;8317;52.186;5.688;2023-04-09T10:08:57;16.50;99.90
16417;DHT22;8317;52.186;5.688;2023-04-09T10:11:24;16.40;99.90
16417;DHT22;8317;52.186;5.688;2023-04-09T10:13:55;16.90;99.90
16417;DHT22;8317;52.186;5.688;2023-04-09T10:16:24;17.40;99.90
16417;DHT22;8317;52.186;5.688;2023-04-09T10:18:52;17.30;99.90
16417;DHT22;8317;52.186;5.688;2023-04-09T10:21:28;17.80;99.90
16417;DHT22;8317;52.186;5.688;2023-04-09T10:23:58;17.60;99.90
16417;DHT22;8317;52.186;5.688;2023-04-09T10:26:32;17.20;99.90
16417;DHT22;8317;52.186;5.688;2023-04-09T10:29:07;17.20;99.90
16417;DHT22;8317;52.186;5.688;2023-04-09T10:31:53;17.00;99.90
16417;DHT22;8317;52.186;5.688;2023-04-09T10:34:22;17.30;99.90
16417;DHT22;8317;52.186;5.688;2023-04-09T10:36:51;17.30;99.90
16417;DHT22;8317;52.186;5.688;2023-04-09T10:39:19;17.50;99.90
16417;DHT22;8317;52.186;5.688;2023-04-09T10:41:47;17.10;99.90
16417;DHT22;8317;52.186;5.688;2023-04-09T10:44:21;16.90;99.90
16417;DHT22;8317;52.186;5.688;2023-04-09T10:46:48;17.00;99.90
16417;DHT22;8317;52.186;5.688;2023-04-09T10:49:20;17.00;99.90
16417;DHT22;8317;52.186;5.688;2023-04-09T10:51:51;17.40;99.90
16417;DHT22;8317;52.186;5.688;2023-04-09T10:54:43;17.50;99.90
16417;DHT22;8317;52.186;5.688;2023-04-09T10:57:15;17.50;99.90
16417;DHT22;8317;52.186;5.688;2023-04-09T10:59:44;17.30;99.90
16417;DHT22;8317;52.186;5.688;2023-04-09T11:02:53;17.50;99.90
16417;DHT22;8317;52.186;5.688;2023-04-09T11:05:31;17.40;99.90
16417;DHT22;8317;52.186;5.688;2023-04-09T11:08:04;18.00;99.90
16417;DHT22;8317;52.186;5.688;2023-04-09T11:10:31;18.20;99.90
16417;DHT22;8317;52.186;5.688;2023-04-09T11:12:58;18.20;99.90
16417;DHT22;8317;52.186;5.688;2023-04-09T11:15:25;18.20;99.90
16417;DHT22;8317;52.186;5.688;2023-04-09T11:17:53;18.00;99.90
16417;DHT22;8317;52.186;5.688;2023-04-09T11:20:22;17.70;99.90
16417;DHT22;8317;52.186;5.688;2023-04-09T11:22:52;18.00;99.90
16417;DHT22;8317;52.186;5.688;2023-04-09T11:25:20;17.90;99.90
16417;DHT22;8317;52.186;5.688;2023-04-09T11:27:47;17.40;99.90
16417;DHT22;8317;52.186;5.688;2023-04-09T11:30:14;17.60;99.90
16417;DHT22;8317;52.186;5.688;2023-04-09T11:32:41;18.70;99.90
16417;DHT22;8317;52.186;5.688;2023-04-09T11:35:12;19.50;99.90
16417;DHT22;8317;52.186;5.688;2023-04-09T11:37:40;18.70;99.90
16417;DHT22;8317;52.186;5.688;2023-04-09T11:40:14;18.80;99.90
16417;DHT22;8317;52.186;5.688;2023-04-09T11:42:42;18.50;99.90
16417;DHT22;8317;52.186;5.688;2023-04-09T11:45:10;18.90;99.90
16417;DHT22;8317;52.186;5.688;2023-04-09T11:47:39;19.20;99.90
16417;DHT22;8317;52.186;5.688;2023-04-09T11:50:08;19.20;99.90
16417;DHT22;8317;52.186;5.688;2023-04-09T11:52:36;19.40;99.90
16417;DHT22;8317;52.186;5.688;2023-04-09T11:55:04;20.00;99.90
16417;DHT22;8317;52.186;5.688;2023-04-09T11:57:43;19.20;99.90
16417;DHT22;8317;52.186;5.688;2023-04-09T12:00:12;18.70;99.90
16417;DHT22;8317;52.186;5.688;2023-04-09T12:02:42;18.00;99.90
16417;DHT22;8317;52.186;5.688;2023-04-09T12:05:11;17.70;99.90
16417;DHT22;8317;52.186;5.688;2023-04-09T12:07:38;17.30;99.90
16417;DHT22;8317;52.186;5.688;2023-04-09T12:10:07;17.10;99.90
16417;DHT22;8317;52.186;5.688;2023-04-09T12:12:39;17.30;99.90
16417;DHT22;8317;52.186;5.688;2023-04-09T12:15:17;17.10;99.90
16417;DHT22;8317;52.186;5.688;2023-04-09T12:17:46;16.80;99.90
16417;DHT22;8317;52.186;5.688;2023-04-09T12:20:13;16.20;99.90
16417;DHT22;8317;52.186;5.688;2023-04-09T12:22:51;16.40;99.90
16417;DHT22;8317;52.186;5.688;2023-04-09T12:25:18;17.00;99.90
16417;DHT22;8317;52.186;5.688;2023-04-09T12:27:45;17.50;99.90
16417;DHT22;8317;52.186;5.688;2023-04-09T12:30:13;17.80;99.90
16417;DHT22;8317;52.186;5.688;2023-04-09T12:32:40;18.20;99.90
16417;DHT22;8317;52.186;5.688;2023-04-09T12:35:09;17.70;99.90
16417;DHT22;8317;52.186;5.688;2023-04-09T12:37:36;17.80;99.90
16417;DHT22;8317;52.186;5.688;2023-04-09T12:40:03;17.80;99.90
16417;DHT22;8317;52.186;5.688;2023-04-09T12:42:30;17.80;99.90
16417;DHT22;8317;52.186;5.688;2023-04-09T12:44:57;17.80;99.90
16417;DHT22;8317;52.186;5.688;2023-04-09T12:47:25;18.40;99.90
16417;DHT22;8317;52.186;5.688;2023-04-09T12:49:53;18.00;99.90
16417;DHT22;8317;52.186;5.688;2023-04-09T12:52:20;18.00;99.90
16417;DHT22;8317;52.186;5.688;2023-04-09T12:54:48;17.90;99.90
16417;DHT22;8317;52.186;5.688;2023-04-09T12:57:15;17.80;99.90
16417;DHT22;8317;52.186;5.688;2023-04-09T12:59:42;17.60;99.90
16417;DHT22;8317;52.186;5.688;2023-04-09T13:02:10;17.50;99.90
16417;DHT22;8317;52.186;5.688;2023-04-09T13:04:38;17.40;99.90
16417;DHT22;8317;52.186;5.688;2023-04-09T13:07:05;17.50;99.90
16417;DHT22;8317;52.186;5.688;2023-04-09T13:09:32;17.70;99.90
16417;DHT22;8317;52.186;5.688;2023-04-09T13:12:00;17.50;99.90
16417;DHT22;8317;52.186;5.688;2023-04-09T13:14:27;17.30;99.90
16417;DHT22;8317;52.186;5.688;2023-04-09T13:16:54;17.40;99.90
16417;DHT22;8317;52.186;5.688;2023-04-09T13:19:20;17.80;99.90
16417;DHT22;8317;52.186;5.688;2023-04-09T13:21:49;18.00;99.90
16417;DHT22;8317;52.186;5.688;2023-04-09T13:24:15;17.70;99.90
16417;DHT22;8317;52.186;5.688;2023-04-09T13:26:42;18.20;99.90
16417;DHT22;8317;52.186;5.688;2023-04-09T13:29:10;18.50;99.90
16417;DHT22;8317;52.186;5.688;2023-04-09T13:31:36;17.50;99.90
16417;DHT22;8317;52.186;5.688;2023-04-09T13:34:03;17.70;99.90
16417;DHT22;8317;52.186;5.688;2023-04-09T13:36:31;17.60;99.90
16417;DHT22;8317;52.186;5.688;2023-04-09T13:38:59;17.50;99.90
16417;DHT22;8317;52.186;5.688;2023-04-09T13:41:29;17.70;99.90
16417;DHT22;8317;52.186;5.688;2023-04-09T13:43:56;17.70;99.90
16417;DHT22;8317;52.186;5.688;2023-04-09T13:46:23;17.60;99.90
16417;DHT22;8317;52.186;5.688;2023-04-09T13:48:50;17.40;99.90
16417;DHT22;8317;52.186;5.688;2023-04-09T13:51:17;17.30;99.90
16417;DHT22;8317;52.186;5.688;2023-04-09T13:53:44;17.30;99.90
16417;DHT22;8317;52.186;5.688;2023-04-09T13:56:14;17.50;99.90
16417;DHT22;8317;52.186;5.688;2023-04-09T13:58:41;17.60;99.90
16417;DHT22;8317;52.186;5.688;2023-04-09T14:01:08;17.80;99.90
16417;DHT22;8317;52.186;5.688;2023-04-09T14:03:35;18.10;99.90
16417;DHT22;8317;52.186;5.688;2023-04-09T14:06:05;18.20;99.90
16417;DHT22;8317;52.186;5.688;2023-04-09T14:08:32;18.00;99.90
16417;DHT22;8317;52.186;5.688;2023-04-09T14:10:59;17.60;99.90
16417;DHT22;8317;52.186;5.688;2023-04-09T14:13:28;17.50;99.90
16417;DHT22;8317;52.186;5.688;2023-04-09T14:15:55;17.60;99.90
16417;DHT22;8317;52.186;5.688;2023-04-09T14:18:22;17.50;99.90
16417;DHT22;8317;52.186;5.688;2023-04-09T14:20:49;17.50;99.90
16417;DHT22;8317;52.186;5.688;2023-04-09T14:23:15;17.80;99.90
16417;DHT22;8317;52.186;5.688;2023-04-09T14:25:43;17.70;99.90
16417;DHT22;8317;52.186;5.688;2023-04-09T14:28:10;17.30;99.90
16417;DHT22;8317;52.186;5.688;2023-04-09T14:30:38;17.30;99.90
16417;DHT22;8317;52.186;5.688;2023-04-09T14:33:05;16.90;99.90
16417;DHT22;8317;52.186;5.688;2023-04-09T14:35:32;17.00;99.90
16417;DHT22;8317;52.186;5.688;2023-04-09T14:37:59;17.10;99.90
16417;DHT22;8317;52.186;5.688;2023-04-09T14:40:29;16.90;99.90
16417;DHT22;8317;52.186;5.688;2023-04-09T14:42:56;16.90;99.90
16417;DHT22;8317;52.186;5.688;2023-04-09T14:45:23;17.10;99.90
16417;DHT22;8317;52.186;5.688;2023-04-09T14:47:51;17.00;99.90
16417;DHT22;8317;52.186;5.688;2023-04-09T14:50:18;17.00;99.90
16417;DHT22;8317;52.186;5.688;2023-04-09T14:52:45;16.80;99.90
16417;DHT22;8317;52.186;5.688;2023-04-09T14:55:12;16.70;99.90
16417;DHT22;8317;52.186;5.688;2023-04-09T14:57:39;16.70;99.90
16417;DHT22;8317;52.186;5.688;2023-04-09T15:00:07;16.90;99.90
16417;DHT22;8317;52.186;5.688;2023-04-09T15:02:35;17.10;99.90
16417;DHT22;8317;52.186;5.688;2023-04-09T15:05:04;16.70;99.90
16417;DHT22;8317;52.186;5.688;2023-04-09T15:07:31;16.70;99.90
16417;DHT22;8317;52.186;5.688;2023-04-09T15:09:58;16.80;99.90
16417;DHT22;8317;52.186;5.688;2023-04-09T15:12:26;16.80;99.90
16417;DHT22;8317;52.186;5.688;2023-04-09T15:14:54;16.80;99.90
16417;DHT22;8317;52.186;5.688;2023-04-09T15:17:21;16.70;99.90
16417;DHT22;8317;52.186;5.688;2023-04-09T15:19:48;16.60;99.90
16417;DHT22;8317;52.186;5.688;2023-04-09T15:22:17;16.70;99.90
16417;DHT22;8317;52.186;5.688;2023-04-09T15:24:43;16.60;99.90
16417;DHT22;8317;52.186;5.688;2023-04-09T15:27:10;16.50;99.90
16417;DHT22;8317;52.186;5.688;2023-04-09T15:29:37;16.60;99.90
16417;DHT22;8317;52.186;5.688;2023-04-09T15:32:04;16.70;99.90
16417;DHT22;8317;52.186;5.688;2023-04-09T15:34:31;16.30;99.90
16417;DHT22;8317;52.186;5.688;2023-04-09T15:36:58;16.10;99.90
16417;DHT22;8317;52.186;5.688;2023-04-09T15:39:27;16.20;99.90
16417;DHT22;8317;52.186;5.688;2023-04-09T15:41:54;16.30;99.90
16417;DHT22;8317;52.186;5.688;2023-04-09T15:44:22;16.00;99.90
16417;DHT22;8317;52.186;5.688;2023-04-09T15:46:49;15.70;99.90
16417;DHT22;8317;52.186;5.688;2023-04-09T15:49:16;15.50;99.90
16417;DHT22;8317;52.186;5.688;2023-04-09T15:51:44;15.40;99.90
16417;DHT22;8317;52.186;5.688;2023-04-09T15:54:10;15.40;99.90
16417;DHT22;8317;52.186;5.688;2023-04-09T15:56:39;15.60;99.90
16417;DHT22;8317;52.186;5.688;2023-04-09T15:59:06;15.50;99.90